Time;durP1;ratioP1;P1;durP2;ratioP2;P2;SDS_P1;SDS_P2;PMS_P1;PMS_P2;Temp;Humidity;BMP_temperature;BMP_pressure;BME280_temperature;BME280_humidity;BME280_pressure;Samples;Min_cycle;Max_cycle;Signal;HPM_P1;HPM_P2
2021/06/18 00:01:22;;;;;;;3.42;2.40;;;22.10;71.00;;;;;;5052101;28;20056;-63
2021/06/18 00:03:50;;;;;;;2.90;2.42;;;22.10;71.20;;;;;;5054936;28;20390;-63
2021/06/18 00:06:17;;;;;;;2.40;2.20;;;22.10;71.30;;;;;;5046073;28;20167;-63
2021/06/18 00:08:43;;;;;;;3.20;2.50;;;22.10;71.60;;;;;;5049501;28;20036;-63
2021/06/18 00:11:09;;;;;;;3.08;2.78;;;22.10;71.70;;;;;;5049933;28;20033;-63
2021/06/18 00:13:35;;;;;;;3.80;2.33;;;22.10;71.70;;;;;;5051784;28;20032;-63
2021/06/18 00:16:01;;;;;;;4.00;2.60;;;22.10;71.80;;;;;;5051778;28;20055;-63
2021/06/18 00:18:27;;;;;;;3.22;2.42;;;22.10;71.40;;;;;;5054553;28;20040;-63
2021/06/18 00:20:53;;;;;;;4.07;2.60;;;22.00;71.30;;;;;;5052146;28;20045;-63
2021/06/18 00:23:19;;;;;;;2.92;2.50;;;22.00;71.30;;;;;;5052906;28;20473;-63
2021/06/18 00:25:44;;;;;;;3.08;2.55;;;22.00;71.00;;;;;;5051998;28;20021;-63
2021/06/18 00:28:13;;;;;;;3.75;2.50;;;22.00;71.10;;;;;;5054264;28;20013;-63
2021/06/18 00:30:40;;;;;;;2.97;2.55;;;22.00;71.30;;;;;;5053823;28;20506;-63
2021/06/18 00:33:05;;;;;;;3.35;2.33;;;22.00;71.20;;;;;;5053153;28;20461;-63
2021/06/18 00:35:32;;;;;;;2.90;2.45;;;21.90;71.00;;;;;;5051642;28;20091;-63
2021/06/18 00:37:58;;;;;;;2.78;2.30;;;21.90;71.40;;;;;;5051725;28;20103;-63
2021/06/18 00:40:23;;;;;;;3.92;2.50;;;21.90;71.50;;;;;;5048491;28;20113;-63
2021/06/18 00:42:49;;;;;;;2.53;2.17;;;21.90;71.40;;;;;;5052989;28;20040;-63
2021/06/18 00:45:15;;;;;;;2.65;2.22;;;21.90;71.40;;;;;;5053283;28;20031;-63
2021/06/18 00:47:49;;;;;;;4.07;2.50;;;21.90;71.70;;;;;;5053774;28;20027;-63
2021/06/18 00:50:16;;;;;;;2.65;1.95;;;21.90;71.60;;;;;;5052779;28;20025;-63
2021/06/18 00:52:42;;;;;;;4.47;2.60;;;21.80;71.70;;;;;;5053640;28;20029;-63
2021/06/18 00:55:08;;;;;;;4.70;2.40;;;21.80;71.60;;;;;;5052516;28;20017;-63
2021/06/18 00:57:34;;;;;;;2.33;2.13;;;21.90;71.80;;;;;;5052883;28;20354;-63
2021/06/18 01:00:00;;;;;;;2.67;2.25;;;21.80;72.30;;;;;;5053051;28;20061;-63
2021/06/18 01:02:25;;;;;;;4.22;2.40;;;21.80;71.60;;;;;;5053420;28;20049;-63
2021/06/18 01:04:51;;;;;;;4.57;2.20;;;21.80;71.60;;;;;;5052706;28;20481;-63
2021/06/18 01:07:30;;;;;;;3.60;2.30;;;21.70;71.40;;;;;;5052600;28;20025;-63
2021/06/18 01:09:58;;;;;;;2.60;2.08;;;21.80;71.60;;;;;;5047138;28;20036;-63
2021/06/18 01:12:31;;;;;;;2.67;2.30;;;21.70;71.70;;;;;;5049836;28;20107;-63
2021/06/18 01:15:06;;;;;;;4.38;2.17;;;21.70;71.50;;;;;;5048124;28;20024;-63
2021/06/18 01:17:48;;;;;;;2.75;2.47;;;21.70;71.60;;;;;;5051934;28;20029;-63
2021/06/18 01:20:51;;;;;;;3.75;2.60;;;21.70;71.80;;;;;;5052091;28;20049;-63
2021/06/18 01:23:47;;;;;;;4.10;2.05;;;21.60;71.30;;;;;;5040097;28;20037;-63
2021/06/18 01:26:52;;;;;;;4.65;2.53;;;21.60;71.60;;;;;;5051163;28;20102;-63
2021/06/18 01:29:20;;;;;;;2.42;2.15;;;21.60;71.50;;;;;;5053473;28;20464;-63
2021/06/18 01:31:47;;;;;;;2.67;2.30;;;21.60;71.60;;;;;;5052350;28;20472;-63
2021/06/18 01:34:18;;;;;;;2.65;2.40;;;21.60;71.90;;;;;;5051130;28;20107;-63
2021/06/18 01:36:50;;;;;;;3.17;2.20;;;21.60;71.90;;;;;;5050058;28;20373;-63
2021/06/18 01:39:17;;;;;;;5.40;2.65;;;21.60;71.70;;;;;;5050438;28;20048;-63
2021/06/18 01:41:45;;;;;;;2.70;2.28;;;21.50;71.80;;;;;;5050667;28;20080;-63
2021/06/18 01:44:12;;;;;;;4.68;2.22;;;21.50;71.60;;;;;;5051118;28;20029;-63
2021/06/18 01:46:41;;;;;;;2.50;2.30;;;21.60;71.80;;;;;;5053075;28;20553;-63
2021/06/18 01:49:10;;;;;;;2.78;2.20;;;21.50;71.80;;;;;;5050365;28;20030;-63
2021/06/18 01:51:37;;;;;;;4.82;2.20;;;21.50;71.60;;;;;;5050778;28;20025;-63
2021/06/18 01:54:05;;;;;;;2.60;2.40;;;21.50;71.40;;;;;;5051768;28;20040;-63
2021/06/18 01:56:34;;;;;;;2.42;2.22;;;21.60;71.60;;;;;;5050589;28;20068;-63
2021/06/18 01:59:02;;;;;;;4.28;2.47;;;21.50;72.00;;;;;;5052173;28;20029;-63
2021/06/18 02:01:44;;;;;;;2.72;2.50;;;21.60;72.20;;;;;;5051939;28;20040;-63
2021/06/18 02:04:12;;;;;;;4.22;2.50;;;21.60;71.90;;;;;;5051360;28;20135;-63
2021/06/18 02:06:40;;;;;;;2.28;2.08;;;21.50;71.60;;;;;;5044901;28;20026;-63
2021/06/18 02:09:08;;;;;;;2.58;2.22;;;21.50;71.70;;;;;;5047313;28;20028;-63
2021/06/18 02:11:38;;;;;;;2.20;2.00;;;21.50;71.90;;;;;;5038463;28;20029;-63
2021/06/18 02:14:08;;;;;;;2.80;2.47;;;21.60;71.90;;;;;;5051013;28;20032;-63
2021/06/18 02:16:36;;;;;;;3.72;2.47;;;21.50;71.50;;;;;;5051867;28;20037;-63
2021/06/18 02:19:03;;;;;;;3.13;2.20;;;21.60;71.70;;;;;;5052055;28;20049;-63
2021/06/18 02:21:29;;;;;;;2.88;2.35;;;21.50;71.60;;;;;;5051680;28;20040;-63
2021/06/18 02:23:58;;;;;;;2.72;2.10;;;21.60;71.60;;;;;;5051627;28;20373;-63
2021/06/18 02:26:25;;;;;;;3.25;2.30;;;21.60;71.60;;;;;;5051561;28;20069;-63
2021/06/18 02:28:55;;;;;;;2.17;2.05;;;21.60;71.30;;;;;;5052339;28;20033;-63
2021/06/18 02:31:23;;;;;;;3.28;2.38;;;21.60;71.30;;;;;;5051605;28;20031;-63
2021/06/18 02:33:50;;;;;;;3.53;2.13;;;21.60;71.40;;;;;;5052485;28;20029;-63
2021/06/18 02:36:17;;;;;;;2.83;2.28;;;21.60;71.40;;;;;;5050897;28;20112;-63
2021/06/18 02:38:44;;;;;;;2.40;2.20;;;21.60;71.70;;;;;;5054970;28;20025;-63
2021/06/18 02:41:10;;;;;;;3.22;2.38;;;21.60;71.80;;;;;;5051650;28;20381;-63
2021/06/18 02:43:37;;;;;;;2.95;2.40;;;21.70;71.70;;;;;;5049458;28;20563;-63
2021/06/18 02:46:02;;;;;;;3.80;2.30;;;21.70;71.40;;;;;;5055019;28;20021;-63
2021/06/18 02:48:42;;;;;;;3.38;2.55;;;21.70;71.20;;;;;;5056647;28;20469;-63
2021/06/18 02:51:14;;;;;;;3.65;2.60;;;21.70;71.40;;;;;;5055347;28;20022;-63
2021/06/18 02:53:59;;;;;;;4.50;2.60;;;21.70;71.20;;;;;;5051789;28;20029;-63
2021/06/18 02:56:31;;;;;;;2.80;2.30;;;21.80;71.10;;;;;;5051975;28;20112;-63
2021/06/18 02:59:19;;;;;;;3.38;2.47;;;21.80;71.00;;;;;;5054696;28;20033;-63
2021/06/18 03:01:46;;;;;;;3.70;2.47;;;21.80;71.00;;;;;;5054669;28;20035;-63
2021/06/18 03:04:22;;;;;;;2.47;1.92;;;21.90;71.10;;;;;;5054769;28;20055;-63
2021/06/18 03:06:51;;;;;;;2.60;2.40;;;21.90;71.00;;;;;;5054511;28;20078;-63
2021/06/18 03:09:28;;;;;;;2.97;2.40;;;21.90;70.50;;;;;;5054779;28;20489;-63
2021/06/18 03:11:56;;;;;;;3.65;2.30;;;22.00;70.60;;;;;;5054109;28;20021;-63
2021/06/18 03:14:26;;;;;;;3.20;2.15;;;22.00;70.50;;;;;;5055090;28;20029;-63
2021/06/18 03:16:57;;;;;;;2.87;2.43;;;22.00;70.70;;;;;;5051751;28;20040;-63
2021/06/18 03:19:31;;;;;;;2.70;2.50;;;22.10;70.40;;;;;;5052756;28;20640;-63
2021/06/18 03:22:00;;;;;;;3.22;2.63;;;22.10;70.00;;;;;;5054661;28;20033;-63
2021/06/18 03:24:31;;;;;;;2.90;2.60;;;22.20;69.60;;;;;;5053991;28;20025;-63
2021/06/18 03:26:58;;;;;;;;;;;22.20;69.60;;;;;;5055790;28;20029;-63
2021/06/18 03:29:26;;;;;;;3.95;2.58;;;22.10;69.80;;;;;;5055092;28;20352;-63
2021/06/18 03:31:54;;;;;;;3.40;2.30;;;22.20;69.70;;;;;;5048961;28;20031;-63
2021/06/18 03:34:20;;;;;;;2.70;2.50;;;22.20;69.80;;;;;;5049607;28;20043;-63
2021/06/18 03:36:47;;;;;;;5.10;2.90;;;22.20;69.60;;;;;;5053378;28;20036;-63
2021/06/18 03:39:12;;;;;;;3.53;2.53;;;22.20;70.00;;;;;;5053741;28;20037;-63
2021/06/18 03:41:39;;;;;;;5.22;2.80;;;22.20;70.30;;;;;;5052516;28;20035;-63
2021/06/18 03:44:05;;;;;;;2.55;2.30;;;22.20;70.10;;;;;;5054290;28;20079;-63
2021/06/18 03:46:32;;;;;;;3.03;2.67;;;22.20;70.10;;;;;;5041460;28;20528;-63
2021/06/18 03:48:59;;;;;;;2.95;2.17;;;22.20;70.00;;;;;;5055369;28;20025;-63
2021/06/18 03:51:25;;;;;;;4.03;2.72;;;22.20;70.00;;;;;;5049838;28;20491;-63
2021/06/18 03:53:50;;;;;;;2.42;2.13;;;22.30;70.00;;;;;;5052846;28;20048;-63
2021/06/18 03:56:17;;;;;;;3.70;2.53;;;22.40;70.10;;;;;;5047928;28;20508;-63
2021/06/18 03:58:45;;;;;;;3.50;2.78;;;22.50;70.00;;;;;;5053071;28;20037;-63
2021/06/18 04:01:12;;;;;;;2.33;2.05;;;22.60;69.70;;;;;;5053946;28;20457;-63
2021/06/18 04:03:41;;;;;;;3.15;2.20;;;22.90;70.20;;;;;;5053453;28;20500;-63
2021/06/18 04:06:09;;;;;;;4.53;2.75;;;23.50;70.00;;;;;;5052529;28;20028;-63
2021/06/18 04:08:36;;;;;;;2.75;2.10;;;24.40;68.50;;;;;;5042479;28;20028;-63
2021/06/18 04:11:04;;;;;;;2.47;2.13;;;25.40;66.60;;;;;;5046411;28;20120;-64
2021/06/18 04:13:31;;;;;;;2.13;1.90;;;26.30;64.50;;;;;;5047923;28;20457;-64
2021/06/18 04:15:57;;;;;;;2.65;2.30;;;27.20;62.50;;;;;;5050190;28;20021;-64
2021/06/18 04:18:24;;;;;;;2.53;1.98;;;28.20;60.50;;;;;;5049793;28;20374;-64
2021/06/18 04:20:51;;;;;;;2.38;1.77;;;29.10;58.80;;;;;;5053447;28;20045;-64
2021/06/18 04:23:18;;;;;;;2.03;1.80;;;29.80;56.70;;;;;;5054339;28;20029;-64
2021/06/18 04:25:44;;;;;;;2.38;1.90;;;30.40;55.40;;;;;;5047448;28;20025;-64
2021/06/18 04:28:10;;;;;;;3.08;1.80;;;30.70;54.70;;;;;;5055062;28;20025;-64
2021/06/18 04:30:35;;;;;;;3.05;1.90;;;31.00;53.60;;;;;;5055200;28;20064;-64
2021/06/18 04:33:01;;;;;;;2.30;2.10;;;31.40;52.80;;;;;;5053975;28;20025;-64
2021/06/18 04:35:27;;;;;;;2.08;1.98;;;31.50;51.80;;;;;;5053971;28;20033;-64
2021/06/18 04:37:52;;;;;;;2.10;1.85;;;31.50;51.20;;;;;;5047234;28;20096;-64
2021/06/18 04:40:18;;;;;;;2.38;1.90;;;31.60;51.40;;;;;;5051984;28;20443;-64
2021/06/18 04:42:44;;;;;;;2.30;1.80;;;31.80;50.80;;;;;;5045932;28;20060;-64
2021/06/18 04:45:11;;;;;;;3.03;2.30;;;32.10;50.50;;;;;;5048193;28;20025;-64
2021/06/18 04:47:37;;;;;;;2.83;2.00;;;32.40;50.10;;;;;;5052819;28;20048;-64
2021/06/18 04:50:04;;;;;;;2.17;2.03;;;32.80;49.80;;;;;;5051672;28;20079;-64
2021/06/18 04:52:30;;;;;;;2.78;2.10;;;33.10;48.90;;;;;;5053441;28;20029;-64
2021/06/18 04:55:03;;;;;;;1.88;1.77;;;33.50;48.40;;;;;;5049450;28;20071;-64
2021/06/18 04:57:29;;;;;;;6.45;2.00;;;33.80;48.00;;;;;;5048403;28;20044;-64
2021/06/18 04:59:55;;;;;;;1.98;1.60;;;34.00;47.50;;;;;;5050336;28;20033;-64
2021/06/18 05:02:21;;;;;;;2.17;1.98;;;34.00;46.80;;;;;;5050652;28;20268;-64
2021/06/18 05:04:46;;;;;;;1.70;1.60;;;34.00;46.40;;;;;;5050147;28;20378;-64
2021/06/18 05:07:12;;;;;;;2.20;1.70;;;33.80;46.60;;;;;;5052465;28;20033;-64
2021/06/18 05:09:38;;;;;;;3.63;2.28;;;33.70;46.90;;;;;;5048022;28;20068;-64
2021/06/18 05:12:03;;;;;;;5.32;1.88;;;33.50;46.70;;;;;;5048012;28;20025;-64
2021/06/18 05:14:29;;;;;;;2.13;1.92;;;33.50;46.90;;;;;;5048232;28;20028;-64
2021/06/18 05:16:55;;;;;;;3.30;2.10;;;33.50;46.70;;;;;;5040860;28;20120;-64
2021/06/18 05:19:21;;;;;;;4.78;2.20;;;33.50;46.50;;;;;;5045027;28;20072;-64
2021/06/18 05:21:47;;;;;;;2.00;1.90;;;33.60;46.20;;;;;;5045406;28;20393;-64
2021/06/18 05:24:12;;;;;;;2.80;1.63;;;33.60;45.70;;;;;;5047131;28;20033;-64
2021/06/18 05:26:38;;;;;;;1.90;1.80;;;33.40;45.80;;;;;;5044406;28;20027;-66
2021/06/18 05:29:04;;;;;;;2.28;2.08;;;32.90;46.20;;;;;;5039983;28;20061;-66
2021/06/18 05:31:29;;;;;;;2.00;1.80;;;32.40;46.80;;;;;;5034675;28;20108;-66
2021/06/18 05:33:55;;;;;;;2.63;2.33;;;31.60;47.40;;;;;;5043616;28;20032;-66
2021/06/18 05:36:21;;;;;;;2.17;1.98;;;30.90;48.10;;;;;;5039780;28;20083;-66
2021/06/18 05:38:47;;;;;;;6.07;2.10;;;30.20;49.20;;;;;;5041476;28;20025;-66
2021/06/18 05:41:13;;;;;;;2.38;2.13;;;29.50;50.20;;;;;;5043996;28;20044;-65
2021/06/18 05:43:38;;;;;;;3.80;2.22;;;29.00;51.30;;;;;;5046023;28;20381;-66
2021/06/18 05:46:04;;;;;;;2.00;1.85;;;28.50;52.10;;;;;;5042606;28;20029;-66
2021/06/18 05:48:30;;;;;;;2.97;2.28;;;28.00;52.90;;;;;;5047035;28;20087;-65
2021/06/18 05:50:56;;;;;;;3.50;2.60;;;27.70;53.50;;;;;;5042393;28;20028;-66
2021/06/18 05:53:23;;;;;;;3.72;2.30;;;27.30;54.10;;;;;;5039885;28;20037;-66
2021/06/18 05:55:49;;;;;;;3.90;2.40;;;27.10;54.90;;;;;;5037549;28;20048;-65
2021/06/18 05:58:15;;;;;;;3.53;2.40;;;26.80;55.30;;;;;;5041311;28;20113;-64
2021/06/18 06:00:41;;;;;;;2.47;2.28;;;26.70;55.80;;;;;;5044276;28;20120;-65
2021/06/18 06:03:11;;;;;;;2.50;2.30;;;26.50;56.20;;;;;;5042728;28;20043;-63
2021/06/18 06:05:37;;;;;;;2.75;2.40;;;26.30;56.70;;;;;;5042361;28;20025;-60
2021/06/18 06:08:03;;;;;;;2.88;2.30;;;26.20;57.30;;;;;;5043008;28;20030;-61
2021/06/18 06:10:28;;;;;;;4.47;2.50;;;26.10;57.60;;;;;;5046015;28;20380;-62
2021/06/18 06:12:54;;;;;;;2.80;2.50;;;25.90;58.30;;;;;;5043917;28;20040;-60
2021/06/18 06:15:20;;;;;;;2.83;2.35;;;25.90;58.50;;;;;;5038090;28;20033;-61
2021/06/18 06:17:46;;;;;;;3.10;2.70;;;25.80;58.60;;;;;;5035550;28;20128;-64
2021/06/18 06:20:12;;;;;;;2.47;2.28;;;25.70;58.80;;;;;;5038555;28;20040;-66
2021/06/18 06:22:38;;;;;;;3.20;2.42;;;25.60;59.00;;;;;;5041991;28;20491;-64
2021/06/18 06:25:04;;;;;;;2.60;2.40;;;25.50;59.30;;;;;;5036008;28;20109;-64
2021/06/18 06:27:30;;;;;;;2.80;2.60;;;25.40;59.50;;;;;;5036656;28;20029;-63
2021/06/18 06:29:56;;;;;;;4.32;2.55;;;25.30;60.00;;;;;;5033757;28;20467;-62
2021/06/18 06:32:22;;;;;;;3.80;2.55;;;25.30;60.20;;;;;;5034582;28;20032;-62
2021/06/18 06:34:48;;;;;;;2.90;2.60;;;25.20;60.20;;;;;;5038914;28;20028;-62
2021/06/18 06:37:13;;;;;;;3.13;2.30;;;25.20;60.70;;;;;;5038364;28;20029;-62
2021/06/18 06:39:39;;;;;;;3.67;2.60;;;25.10;61.30;;;;;;5037939;28;20060;-63
2021/06/18 06:42:05;;;;;;;2.60;2.40;;;25.10;61.10;;;;;;5037892;28;20653;-63
2021/06/18 06:44:31;;;;;;;3.47;2.55;;;25.10;61.20;;;;;;5033431;28;20106;-64
2021/06/18 06:46:57;;;;;;;3.10;2.40;;;25.10;62.20;;;;;;5029424;28;20040;-64
2021/06/18 06:49:25;;;;;;;5.15;2.50;;;25.10;62.10;;;;;;5034304;28;20029;-63
2021/06/18 06:51:50;;;;;;;2.72;2.50;;;25.10;62.20;;;;;;5035891;28;20068;-62
2021/06/18 06:54:16;;;;;;;6.00;2.60;;;25.00;62.10;;;;;;5037129;28;20490;-62
2021/06/18 06:56:42;;;;;;;3.35;2.72;;;25.00;62.20;;;;;;5033545;28;20024;-60
2021/06/18 06:59:08;;;;;;;5.45;2.70;;;24.90;62.20;;;;;;5030488;28;20037;-63
2021/06/18 07:01:33;;;;;;;3.15;2.72;;;24.90;62.60;;;;;;5028601;28;20144;-62
2021/06/18 07:04:00;;;;;;;4.20;2.75;;;24.80;62.50;;;;;;5030571;28;20484;-61
2021/06/18 07:06:27;;;;;;;3.10;2.80;;;24.80;62.70;;;;;;5028693;28;20111;-62
2021/06/18 07:08:52;;;;;;;2.65;2.38;;;24.80;63.20;;;;;;5029814;28;20179;-63
2021/06/18 07:11:18;;;;;;;3.78;2.85;;;24.80;63.30;;;;;;5034272;28;20037;-62
2021/06/18 07:13:44;;;;;;;2.72;2.30;;;24.80;63.30;;;;;;5031281;28;20037;-63
2021/06/18 07:16:12;;;;;;;3.80;2.55;;;24.80;63.80;;;;;;5029559;28;20379;-62
2021/06/18 07:18:38;;;;;;;4.97;2.78;;;24.70;64.10;;;;;;5034356;28;20115;-62
2021/06/18 07:21:04;;;;;;;3.85;2.95;;;24.70;64.30;;;;;;5028279;28;20655;-62
2021/06/18 07:23:30;;;;;;;4.18;2.67;;;24.70;64.70;;;;;;5028865;28;20063;-62
2021/06/18 07:25:55;;;;;;;2.85;2.55;;;24.80;65.00;;;;;;5032415;28;20029;-62
2021/06/18 07:28:21;;;;;;;3.40;2.60;;;24.80;65.40;;;;;;5030647;28;20029;-63
2021/06/18 07:30:47;;;;;;;2.72;2.40;;;24.90;65.20;;;;;;5033498;28;20056;-62
2021/06/18 07:33:12;;;;;;;2.63;2.42;;;24.90;64.80;;;;;;5037280;28;20033;-64
2021/06/18 07:35:38;;;;;;;2.70;2.50;;;24.90;64.80;;;;;;5034634;28;20036;-64
2021/06/18 07:38:04;;;;;;;3.45;2.70;;;24.90;64.90;;;;;;5036068;28;20361;-63
2021/06/18 07:40:31;;;;;;;5.68;2.72;;;24.80;65.20;;;;;;5036028;28;20087;-63
2021/06/18 07:42:56;;;;;;;5.80;2.85;;;24.80;65.30;;;;;;5034260;28;20041;-60
2021/06/18 07:45:22;;;;;;;2.95;2.70;;;24.70;65.30;;;;;;5034266;28;20384;-63
2021/06/18 07:47:48;;;;;;;3.95;2.78;;;24.70;65.50;;;;;;5035742;28;20377;-64
2021/06/18 07:50:18;;;;;;;3.58;2.92;;;24.70;66.00;;;;;;5032096;28;20183;-63
2021/06/18 07:52:43;;;;;;;5.05;2.72;;;24.70;66.10;;;;;;5033514;28;20432;-61
2021/06/18 07:55:16;;;;;;;2.88;2.60;;;24.60;66.80;;;;;;5035335;28;20152;-61
2021/06/18 07:57:41;;;;;;;4.03;2.72;;;24.60;66.90;;;;;;5031196;28;20048;-61
2021/06/18 08:00:08;;;;;;;5.75;2.70;;;24.70;67.30;;;;;;5028743;28;20410;-61
2021/06/18 08:02:34;;;;;;;3.42;2.30;;;24.60;67.50;;;;;;5029943;28;20036;-61
2021/06/18 08:05:00;;;;;;;3.88;2.47;;;24.60;66.90;;;;;;5034268;28;20428;-61
2021/06/18 08:07:25;;;;;;;2.65;2.40;;;24.50;67.10;;;;;;5035870;28;20529;-61
2021/06/18 08:09:51;;;;;;;5.43;2.47;;;24.50;66.80;;;;;;5026789;28;20037;-62
2021/06/18 08:12:18;;;;;;;3.17;2.60;;;24.50;66.50;;;;;;5033698;28;20039;-61
2021/06/18 08:14:44;;;;;;;2.75;2.05;;;24.50;66.70;;;;;;5029895;28;20064;-61
2021/06/18 08:17:10;;;;;;;3.10;2.65;;;24.60;67.10;;;;;;5035612;28;20044;-61
2021/06/18 08:19:36;;;;;;;2.90;2.60;;;24.50;67.10;;;;;;5036008;28;20060;-61
2021/06/18 08:22:03;;;;;;;5.55;3.13;;;24.60;67.50;;;;;;5030153;28;22570;-61
2021/06/18 08:24:29;;;;;;;3.70;2.80;;;24.60;67.90;;;;;;5028575;28;20037;-61
2021/06/18 08:26:55;;;;;;;3.05;2.75;;;24.60;67.90;;;;;;5036480;28;20013;-61
2021/06/18 08:29:20;;;;;;;3.85;2.78;;;24.60;67.90;;;;;;5035309;28;20029;-61
2021/06/18 08:31:46;;;;;;;4.68;2.75;;;24.60;68.00;;;;;;5031852;28;20036;-61
2021/06/18 08:34:11;;;;;;;3.38;3.08;;;24.60;68.10;;;;;;5034053;28;20029;-61
2021/06/18 08:36:39;;;;;;;3.10;2.53;;;24.60;68.20;;;;;;5035445;28;20036;-61
2021/06/18 08:39:05;;;;;;;3.28;2.88;;;24.70;68.60;;;;;;5029457;28;20034;-61
2021/06/18 08:41:31;;;;;;;3.88;2.60;;;24.70;68.10;;;;;;5031907;28;20034;-61
2021/06/18 08:43:57;;;;;;;2.70;2.50;;;24.70;67.70;;;;;;5033644;28;20029;-61
2021/06/18 08:46:23;;;;;;;4.65;2.80;;;24.80;67.70;;;;;;5031464;28;20440;-61
2021/06/18 08:48:49;;;;;;;4.60;2.50;;;24.80;68.10;;;;;;5029893;28;20025;-61
2021/06/18 08:51:14;;;;;;;3.72;2.80;;;24.90;68.60;;;;;;5034539;28;20025;-61
2021/06/18 08:53:42;;;;;;;3.95;2.88;;;24.90;68.30;;;;;;5029119;28;20040;-61
2021/06/18 08:56:08;;;;;;;3.97;2.75;;;25.00;68.30;;;;;;5031774;28;20086;-61
2021/06/18 08:58:35;;;;;;;3.67;2.80;;;25.00;68.20;;;;;;5033437;28;20031;-61
2021/06/18 09:01:01;;;;;;;3.50;2.60;;;25.00;68.50;;;;;;5030296;28;20025;-61
2021/06/18 09:03:42;;;;;;;3.00;2.53;;;25.10;67.30;;;;;;5032577;28;20040;-61
2021/06/18 09:06:37;;;;;;;3.17;2.38;;;25.10;66.40;;;;;;5033103;28;20037;-61
2021/06/18 09:09:21;;;;;;;3.75;2.60;;;25.10;66.40;;;;;;5032965;28;20047;-63
2021/06/18 09:11:56;;;;;;;3.30;2.70;;;25.20;66.50;;;;;;5027972;28;20140;-63
2021/06/18 09:14:28;;;;;;;4.22;2.60;;;25.20;66.30;;;;;;5027184;28;20029;-64
2021/06/18 09:17:10;;;;;;;5.05;3.00;;;25.20;66.30;;;;;;5028816;28;20436;-63
2021/06/18 09:19:49;;;;;;;4.03;2.85;;;25.20;66.70;;;;;;5029520;28;20049;-63
2021/06/18 09:22:16;;;;;;;3.45;2.95;;;25.20;66.60;;;;;;5031907;28;20891;-63
2021/06/18 09:24:55;;;;;;;3.17;2.88;;;25.20;66.40;;;;;;5031047;28;20064;-63
2021/06/18 09:27:30;;;;;;;3.03;2.67;;;25.20;67.00;;;;;;5029067;28;20064;-61
2021/06/18 09:29:55;;;;;;;7.15;3.15;;;25.20;66.80;;;;;;5030052;28;20757;-61
2021/06/18 09:32:21;;;;;;;3.63;2.97;;;25.30;67.50;;;;;;5033467;28;20032;-63
2021/06/18 09:35:02;;;;;;;3.28;2.85;;;25.30;67.40;;;;;;5032269;28;20151;-60
2021/06/18 09:37:39;;;;;;;;;;;25.40;67.80;;;;;;5033250;28;20044;-62
2021/06/18 09:40:15;;;;;;;3.88;2.90;;;25.40;67.80;;;;;;5031624;28;19970;-62
2021/06/18 09:42:57;;;;;;;3.03;2.70;;;25.50;67.30;;;;;;5032177;28;20477;-62
2021/06/18 09:45:25;;;;;;;5.55;2.70;;;25.50;66.40;;;;;;5031516;28;20501;-63
2021/06/18 09:47:51;;;;;;;3.30;2.95;;;25.60;66.30;;;;;;5032852;28;20030;-63
2021/06/18 09:50:26;;;;;;;3.50;2.75;;;25.60;66.40;;;;;;5036345;28;20029;-63
2021/06/18 09:53:19;;;;;;;4.03;3.10;;;25.60;66.70;;;;;;5031551;28;20028;-63
2021/06/18 09:56:00;;;;;;;3.42;3.08;;;25.60;66.90;;;;;;5026978;28;20094;-63
2021/06/18 09:58:36;;;;;;;;;;;25.60;67.10;;;;;;5031846;28;20028;-63
2021/06/18 10:01:20;;;;;;;3.35;2.50;;;25.50;67.50;;;;;;5032082;28;22430;-61
2021/06/18 10:04:13;;;;;;;3.45;2.75;;;25.50;67.40;;;;;;5027565;28;20021;-62
2021/06/18 10:06:41;;;;;;;4.15;2.83;;;25.60;67.30;;;;;;5027216;28;20079;-63
2021/06/18 10:09:08;;;;;;;2.92;2.67;;;25.60;67.40;;;;;;5030065;28;20028;-62
2021/06/18 10:11:36;;;;;;;2.65;2.45;;;25.60;67.50;;;;;;5025821;28;20064;-63
2021/06/18 10:14:03;;;;;;;2.88;2.47;;;25.70;68.10;;;;;;5028376;28;20025;-62
2021/06/18 10:16:29;;;;;;;3.60;2.53;;;25.70;67.00;;;;;;5027033;28;20047;-62
2021/06/18 10:18:59;;;;;;;3.65;2.90;;;25.70;67.40;;;;;;5036491;28;20104;-62
2021/06/18 10:21:27;;;;;;;3.70;2.65;;;25.60;67.30;;;;;;5030870;28;20152;-62
2021/06/18 10:23:58;;;;;;;2.78;2.58;;;25.60;66.90;;;;;;5031702;28;20032;-61
2021/06/18 10:26:25;;;;;;;;;;;25.50;66.70;;;;;;5026301;28;20148;-61
2021/06/18 10:28:53;;;;;;;3.38;2.30;;;25.40;67.10;;;;;;5032650;28;20446;-61
2021/06/18 10:31:35;;;;;;;3.38;2.63;;;25.40;67.50;;;;;;5031664;28;20606;-62
2021/06/18 10:34:18;;;;;;;3.13;2.83;;;25.40;67.80;;;;;;5026144;28;20044;-62
2021/06/18 10:36:44;;;;;;;3.00;2.63;;;25.30;67.90;;;;;;5029933;28;20158;-62
2021/06/18 10:39:13;;;;;;;3.10;2.60;;;25.30;68.20;;;;;;5038160;28;20025;-62
2021/06/18 10:41:47;;;;;;;3.95;3.20;;;25.30;68.30;;;;;;5032121;28;20033;-62
2021/06/18 10:44:33;;;;;;;2.60;2.40;;;25.30;68.70;;;;;;5035046;28;20075;-63
2021/06/18 10:46:59;;;;;;;3.78;2.90;;;25.20;68.70;;;;;;5034155;28;20026;-61
2021/06/18 10:49:36;;;;;;;4.85;3.03;;;25.20;69.00;;;;;;5029731;28;20033;-61
2021/06/18 10:52:15;;;;;;;3.40;3.10;;;25.20;69.50;;;;;;5033528;28;20051;-62
2021/06/18 10:55:00;;;;;;;2.78;2.58;;;25.30;69.70;;;;;;5030337;28;20087;-62
2021/06/18 10:57:26;;;;;;;3.13;2.83;;;25.20;70.30;;;;;;5027630;28;20057;-62
2021/06/18 10:59:54;;;;;;;3.20;2.90;;;25.20;69.80;;;;;;5031498;28;20039;-61
2021/06/18 11:02:23;;;;;;;4.65;2.80;;;25.20;70.10;;;;;;5034461;28;20029;-62
2021/06/18 11:05:29;;;;;;;4.32;2.83;;;25.30;70.30;;;;;;5035983;28;20033;-62
2021/06/18 11:08:26;;;;;;;3.40;2.78;;;25.30;70.20;;;;;;5033538;28;20036;-63
2021/06/18 11:10:57;;;;;;;4.25;2.65;;;25.40;70.70;;;;;;5035512;28;20497;-62
2021/06/18 11:13:23;;;;;;;4.75;2.75;;;25.40;70.30;;;;;;5026127;28;20021;-61
2021/06/18 11:15:48;;;;;;;5.18;2.88;;;25.40;70.10;;;;;;5029786;28;20072;-61
2021/06/18 11:18:27;;;;;;;3.35;2.63;;;25.40;70.40;;;;;;5027280;28;20029;-59
2021/06/18 11:20:55;;;;;;;3.03;2.65;;;25.40;70.10;;;;;;5034586;28;20174;-60
2021/06/18 11:23:29;;;;;;;3.65;2.60;;;25.50;70.20;;;;;;5033382;28;20044;-60
2021/06/18 11:26:06;;;;;;;4.13;2.83;;;25.50;69.90;;;;;;5033656;28;20128;-59
2021/06/18 11:28:35;;;;;;;3.20;2.90;;;25.50;70.40;;;;;;5037650;28;20032;-62
2021/06/18 11:31:08;;;;;;;2.85;2.58;;;25.50;70.10;;;;;;5035936;28;20037;-62
2021/06/18 11:33:40;;;;;;;2.60;2.40;;;25.50;69.80;;;;;;5032529;28;20401;-63
2021/06/18 11:36:13;;;;;;;2.63;2.42;;;25.50;69.80;;;;;;5035899;28;20064;-62
2021/06/18 11:38:39;;;;;;;2.60;2.40;;;25.40;70.00;;;;;;5038829;28;20104;-63
2021/06/18 11:41:09;;;;;;;2.63;2.33;;;25.40;70.10;;;;;;5039643;28;20029;-63
2021/06/18 11:43:37;;;;;;;3.95;2.67;;;25.40;70.30;;;;;;5039691;28;20029;-61
2021/06/18 11:46:03;;;;;;;3.17;2.88;;;25.40;70.40;;;;;;5036772;28;20121;-63
2021/06/18 11:48:29;;;;;;;4.32;3.00;;;25.40;70.70;;;;;;5037450;28;20036;-62
2021/06/18 11:50:56;;;;;;;4.68;3.15;;;25.40;71.00;;;;;;5036157;28;20120;-63
2021/06/18 11:53:22;;;;;;;3.58;2.55;;;25.40;71.30;;;;;;5036728;28;20493;-63
2021/06/18 11:56:02;;;;;;;3.05;2.47;;;25.40;71.10;;;;;;5040687;28;20111;-62
2021/06/18 11:58:42;;;;;;;3.83;2.58;;;25.40;71.20;;;;;;5032717;28;20081;-61
2021/06/18 12:01:13;;;;;;;4.22;2.88;;;25.30;70.80;;;;;;5028436;28;20156;-60
2021/06/18 12:03:39;;;;;;;4.07;2.75;;;25.20;70.90;;;;;;5026392;28;20381;-61
2021/06/18 12:06:26;;;;;;;3.85;2.65;;;25.20;71.00;;;;;;5034787;28;20065;-62
2021/06/18 12:09:07;;;;;;;3.10;2.80;;;25.10;71.50;;;;;;5030584;28;20036;-58
2021/06/18 12:11:40;;;;;;;3.85;2.90;;;25.10;71.90;;;;;;5025087;28;20089;-60
2021/06/18 12:14:08;;;;;;;3.30;2.70;;;25.00;72.10;;;;;;5030004;28;20082;-60
2021/06/18 12:16:38;;;;;;;2.85;2.58;;;25.00;72.20;;;;;;5036503;28;20029;-61
2021/06/18 12:19:23;;;;;;;3.78;2.80;;;25.00;72.90;;;;;;5030722;28;20029;-62
2021/06/18 12:22:01;;;;;;;2.72;2.42;;;25.00;73.40;;;;;;5030598;28;20048;-61
2021/06/18 12:24:43;;;;;;;4.22;2.58;;;25.00;73.90;;;;;;5034921;28;20021;-59
2021/06/18 12:27:29;;;;;;;4.72;3.00;;;24.90;73.40;;;;;;5031583;28;20041;-61
2021/06/18 12:30:04;;;;;;;3.80;2.90;;;24.90;73.20;;;;;;5032846;28;20107;-60
2021/06/18 12:32:37;;;;;;;5.45;3.05;;;24.90;72.80;;;;;;5038451;28;20031;-62
2021/06/18 12:35:08;;;;;;;4.75;2.80;;;24.90;72.50;;;;;;5037774;28;20484;-62
2021/06/18 12:37:36;;;;;;;3.58;2.60;;;25.00;72.40;;;;;;5029087;28;20095;-62
2021/06/18 12:40:11;;;;;;;3.45;2.70;;;25.00;72.20;;;;;;5025596;28;20040;-63
2021/06/18 12:42:41;;;;;;;3.58;3.28;;;25.00;72.30;;;;;;5032230;28;20524;-61
2021/06/18 12:45:13;;;;;;;4.20;3.00;;;25.00;71.90;;;;;;5029427;28;20033;-62
2021/06/18 12:47:40;;;;;;;2.88;2.67;;;24.90;71.90;;;;;;5032188;28;20028;-63
2021/06/18 12:50:27;;;;;;;3.30;2.80;;;24.90;71.80;;;;;;5035990;28;20741;-63
2021/06/18 12:52:55;;;;;;;3.40;3.00;;;24.90;71.70;;;;;;5033308;28;20041;-62
2021/06/18 12:55:29;;;;;;;3.67;2.90;;;24.90;71.20;;;;;;5031398;28;20598;-61
2021/06/18 12:58:03;;;;;;;3.00;2.70;;;24.90;71.00;;;;;;5034784;28;20033;-63
2021/06/18 13:00:30;;;;;;;3.25;2.95;;;24.90;70.80;;;;;;5031984;28;20140;-61